METAR Data
IDs: Format: Raw Decoded Include TAF

Data at: 0247 UTC 12 May 2021

KC62 120235Z AUTO 28003KT 10SM CLR 06/00 A3036 RMK AO2 T00590001
KC62 120215Z AUTO 29003KT 10SM CLR 06/00 A3034 RMK AO2 T00691004
KC62 120155Z AUTO 29003KT 10SM CLR 07/00 A3033 RMK AO2 T00731005
KC62 120135Z AUTO 00000KT 10SM CLR 07/M01 A3032 RMK AO2 T00791008
KC62 120115Z AUTO 32004KT 10SM CLR 08/M01 A3031 RMK AO2 T00811008
KC62 120055Z AUTO 33006KT 10SM CLR 08/M01 A3030 RMK AO2 T00871007
KC62 120035Z AUTO 33005KT 10SM CLR 09/M01 A3030 RMK AO2 T00941008
KC62 120015Z AUTO 32005KT 10SM CLR 09/00 A3029 RMK AO2 T00961007
KC62 112355Z AUTO 34006KT 10SM CLR 10/00 A3029 RMK AO2 T01011007
KC62 112335Z AUTO 31006KT 10SM CLR 10/M01 A3028 RMK AO2 T01031008
KC62 112315Z AUTO 35010KT 10SM SCT060 10/M01 A3028 RMK AO2 T01041009
KC62 112255Z AUTO 34010KT 10SM SCT060 10/00 A3028 RMK AO2 T01061005
KC62 112235Z AUTO 32008G14KT 10SM SCT060 10/M01 A3027 RMK AO2 T01061009
KC62 112215Z AUTO 36009KT 10SM SCT060 11/00 A3028 RMK AO2 T01091001
KC62 112155Z AUTO 32007G18KT 10SM BKN060 11/M01 A3028 RMK AO2 T01091009
KC62 112135Z AUTO 29011G15KT 10SM BKN060 11/M01 A3027 RMK AO2 T01081008
KC62 112115Z AUTO 32009G16KT 10SM BKN060 11/M01 A3028 RMK AO2 T01111009
KC62 112055Z AUTO 32009G16KT 300V360 10SM BKN060 10/00 A3028 RMK AO2 T01041008
KC62 112035Z AUTO 31006G19KT 10SM SCT060 10/M01 A3028 RMK AO2 T01021009
KC62 112015Z AUTO 34008G14KT 10SM BKN060 BKN070 10/M01 A3028 RMK AO2 T00981013
KC62 111955Z AUTO 32006G15KT 10SM BKN060 BKN070 10/M01 A3028 RMK AO2 T01031013
KC62 111935Z AUTO 33009G16KT 10SM OVC060 10/M01 A3028 RMK AO2 T00971010
KC62 111915Z AUTO 32012G20KT 10SM BKN060 10/00 A3029 RMK AO2 T01070001
KC62 111855Z AUTO 33010G14KT 290V350 10SM BKN055 BKN070 10/00 A3030 RMK AO2 T01000003
KC62 111835Z AUTO 33008KT 10SM SCT055 OVC065 10/00 A3030 RMK AO2 T00980001
KC62 111815Z AUTO 33010G16KT 300V360 10SM BKN055 OVC065 08/00 A3030 RMK AO2 T00910001
KC62 111755Z AUTO 34011G14KT 10SM OVC055 08/00 A3031 RMK AO2 T00891006
KC62 111735Z AUTO 34007G14KT 10SM OVC049 08/00 A3031 RMK AO2 T00891006
KC62 111715Z AUTO 34010G19KT 10SM OVC049 08/00 A3031 RMK AO2 T00861007
KC62 111655Z AUTO 31007G23KT 10SM BKN049 08/00 A3031 RMK AO2 T00901004
KC62 111635Z AUTO 34011G26KT 10SM BKN049 08/M01 A3031 RMK AO2 T00871008
KC62 111615Z AUTO 29008G18KT 10SM SCT049 08/00 A3031 RMK AO2 T00861003
KC62 111555Z AUTO 33012G18KT 10SM CLR 08/00 A3031 RMK AO2 T00841004
KC62 111535Z AUTO 35012G20KT 10SM CLR 07/00 A3031 RMK AO2 T00791006
KC62 111515Z AUTO 36010G14KT 10SM CLR 07/00 A3030 RMK AO2 T00801005
KC62 111455Z AUTO 34011G16KT 10SM CLR 07/00 A3030 RMK AO2 T00780000
KC62 111435Z AUTO 36010KT 10SM CLR 06/00 A3030 RMK AO2 T00690000
KC62 111415Z AUTO 01007KT 10SM CLR 06/00 A3030 RMK AO2 T00640007
KC62 111355Z AUTO 34007KT 10SM CLR 05/01 A3029 RMK AO2 T00580012
KC62 111335Z AUTO 35008KT 10SM CLR 05/00 A3030 RMK AO2 T00510005
KC62 111315Z AUTO 35009KT 320V020 10SM CLR 05/00 A3029 RMK AO2 T00490006
KC62 111255Z AUTO 35007KT 10SM CLR 04/00 A3029 RMK AO2 T00440004
KC62 111235Z AUTO 35004KT 10SM CLR 03/00 A3028 RMK AO2 T00350001
KC62 111215Z AUTO 35004KT 10SM CLR 02/00 A3028 RMK AO2 T00250001
KC62 111155Z AUTO 35005KT 10SM CLR 01/00 A3027 RMK AO2 T00140000
KC62 111135Z AUTO 35004KT 10SM CLR 01/00 A3026 RMK AO2 T00091005
KC62 111115Z AUTO 34003KT 10SM SCT110 00/00 A3025 RMK AO2 T00071005
KC62 111055Z AUTO 35004KT 10SM CLR 00/00 A3024 RMK AO2 T00051006
KC62 111035Z AUTO 35004KT 10SM SCT110 01/00 A3024 RMK AO2 T00081005
KC62 111015Z AUTO 34005KT 10SM BKN120 01/00 A3023 RMK AO2 T00111005
KC62 110955Z AUTO 35006KT 10SM SCT120 01/00 A3022 RMK AO2 T00111005
KC62 110935Z AUTO 36004KT 10SM SCT120 01/00 A3021 RMK AO2 T00131007
KC62 110915Z AUTO 35005KT 10SM BKN120 01/00 A3021 RMK AO2 T00171004
KC62 110855Z AUTO 34004KT 10SM SCT120 02/00 A3021 RMK AO2 T00211003
KC62 110835Z AUTO 33003KT 10SM CLR 02/00 A3020 RMK AO2 T00261005
KC62 110815Z AUTO 34005KT 10SM CLR 02/00 A3019 RMK AO2 T00251002
KC62 110755Z AUTO 35005KT 10SM CLR 02/00 A3019 RMK AO2 T00251002
KC62 110735Z AUTO 34005KT 10SM CLR 02/00 A3020 RMK AO2 T00251003
KC62 110715Z AUTO 34005KT 10SM CLR 02/00 A3020 RMK AO2 T00251005
KC62 110655Z AUTO 34005KT 10SM CLR 03/M01 A3019 RMK AO2 T00321009
KC62 110635Z AUTO 33005KT 10SM CLR 03/M01 A3019 RMK AO2 T00381011
KC62 110615Z AUTO 33004KT 10SM CLR 04/M01 A3019 RMK AO2 T00421011
KC62 110555Z AUTO 33004KT 10SM SCT120 05/M01 A3019 RMK AO2 T00471013
KC62 110535Z AUTO 32004KT 10SM BKN120 05/M01 A3019 RMK AO2 T00511014
KC62 110515Z AUTO 32004KT 10SM BKN120 05/M01 A3019 RMK AO2 T00521014
KC62 110455Z AUTO 33006KT 10SM BKN120 05/M02 A3019 RMK AO2 T00551019
KC62 110435Z AUTO 33006KT 10SM SCT120 06/M01 A3019 RMK AO2 T00581017
KC62 110415Z AUTO 33007KT 10SM CLR 06/M01 A3018 RMK AO2 T00621011
KC62 110355Z AUTO 34008KT 10SM CLR 06/00 A3017 RMK AO2 T00661006
KC62 110335Z AUTO 34008KT 10SM CLR 06/00 A3017 RMK AO2 T00661004
KC62 110315Z AUTO 32003KT 10SM CLR 06/00 A3017 RMK AO2 T00690006
KC62 110255Z AUTO 33006KT 10SM CLR 07/01 A3016 RMK AO2 T00700016
KC62 110235Z AUTO 33007KT 10SM CLR 07/02 A3016 RMK AO2 T00710021
KC62 110215Z AUTO 34005KT 10SM CLR 07/02 A3015 RMK AO2 T00700025
KC62 110155Z AUTO 33003KT 10SM CLR 07/02 A3015 RMK AO2 T00750024
KC62 110135Z AUTO 34003KT 10SM CLR 07/02 A3014 RMK AO2 T00770026
KC62 110115Z AUTO 34004KT 10SM CLR 08/02 A3014 RMK AO2 T00800027
KC62 110055Z AUTO 34004KT 10SM SCT120 08/02 A3014 RMK AO2 T00890029
KC62 110035Z AUTO 35005KT 10SM SCT120 09/03 A3014 RMK AO2 T00920032
KC62 110015Z AUTO 34007KT 10SM CLR 10/03 A3013 RMK AO2 T00970039
KC62 102355Z AUTO 35007KT 10SM CLR 10/03 A3013 RMK AO2 T01000039
KC62 102335Z AUTO 01009KT 10SM SCT060 10/03 A3012 RMK AO2 T01020037
KC62 102315Z AUTO 34008KT 10SM SCT050 BKN060 10/02 A3012 RMK AO2 T01070029
KC62 102255Z AUTO 33005KT 10SM SCT050 OVC060 10/03 A3012 RMK AO2 T01050031
KC62 102235Z AUTO 36007KT 10SM BKN048 OVC060 10/02 A3013 RMK AO2 T01040029
KC62 102215Z AUTO 35007KT 10SM BKN044 OVC060 10/03 A3012 RMK AO2 T01050039
KC62 102155Z AUTO 34006KT 10SM BKN044 OVC055 10/03 A3012 RMK AO2 T01060038
KC62 102135Z AUTO 27006KT 10SM SCT046 BKN055 OVC070 11/03 A3012 RMK AO2 T01130034
KC62 102115Z AUTO 31003KT 10SM BKN046 BKN055 11/03 A3012 RMK AO2 T01120033
KC62 102055Z AUTO 28004KT 10SM BKN048 BKN055 12/03 A3012 RMK AO2 T01220040
KC62 102035Z AUTO 34004KT 10SM BKN046 OVC050 11/03 A3012 RMK AO2 T01080032
KC62 102015Z AUTO 27005KT 10SM BKN048 BKN060 10/03 A3012 RMK AO2 T01040031
KC62 101955Z AUTO 27009KT 10SM OVC050 11/03 A3012 RMK AO2 T01100038
KC62 101935Z AUTO 28006G09KT 10SM BKN050 OVC065 10/03 A3012 RMK AO2 T01070032
KC62 101915Z AUTO 27010G16KT 10SM SCT045 BKN050 OVC065 10/02 A3013 RMK AO2 T01060030
KC62 101855Z AUTO 26010G18KT 10SM SCT044 OVC050 10/03 A3013 RMK AO2 T01040032
KC62 101835Z AUTO 28012G20KT 10SM OVC050 11/02 A3013 RMK AO2 T01100020
KC62 101815Z AUTO 27009KT 10SM SCT044 OVC060 11/03 A3012 RMK AO2 T01110030
KC62 101755Z AUTO 31004KT 10SM BKN060 OVC070 11/02 A3012 RMK AO2 T01100027
KC62 101735Z AUTO 29003KT 10SM BKN060 BKN070 11/02 A3012 RMK AO2 T01100024
KC62 101715Z AUTO 00000KT 10SM SCT045 BKN050 OVC070 11/02 A3012 RMK AO2 T01100023
KC62 101655Z AUTO 06003KT 10SM BKN065 BKN080 11/02 A3012 RMK AO2 T01130026
KC62 101635Z AUTO 35003KT 10SM BKN070 OVC085 11/02 A3012 RMK AO2 T01090029
KC62 101615Z AUTO 09003KT 10SM SCT070 BKN085 10/03 A3012 RMK AO2 T01050033
KC62 101555Z AUTO 04003KT 10SM BKN070 10/03 A3012 RMK AO2 T01020041
KC62 101535Z AUTO 01004KT 10SM SCT120 10/04 A3011 RMK AO2 T00990044
KC62 101515Z AUTO 00000KT 10SM SCT075 BKN120 09/04 A3011 RMK AO2 T00950044
KC62 101455Z AUTO 00000KT 10SM OVC075 08/03 A3011 RMK AO2 T00870041